Time;durP1;ratioP1;P1;durP2;ratioP2;P2;SDS_P1;SDS_P2;PMS_P1;PMS_P2;Temp;Humidity;BMP_temperature;BMP_pressure;BME280_temperature;BME280_humidity;BME280_pressure;Samples;Min_cycle;Max_cycle;Signal;HPM_P1;HPM_P2
2022/07/05 00:02:25;;;;;;;2.97;2.50;;;;;;;;;;5048269;28;20301;-57
2022/07/05 00:04:52;;;;;;;4.93;2.80;;;;;;;;;;5029522;28;20240;-55
2022/07/05 00:07:19;;;;;;;3.20;2.33;;;;;;;;;;5028781;28;20180;-51
2022/07/05 00:09:57;;;;;;;2.67;2.47;;;;;;;;;;5030085;28;20185;-54
2022/07/05 00:12:25;;;;;;;3.30;2.80;;;;;;;;;;5029568;28;20454;-54
2022/07/05 00:14:51;;;;;;;2.77;2.53;;;;;;;;;;5029624;28;20189;-54
2022/07/05 00:17:17;;;;;;;2.77;2.40;;;;;;;;;;5047257;28;20240;-54
2022/07/05 00:19:43;;;;;;;3.13;2.83;;;;;;;;;;5047809;28;20272;-54
2022/07/05 00:22:10;;;;;;;3.13;2.60;;;;;;;;;;5029815;28;20181;-53
2022/07/05 00:24:36;;;;;;;2.57;2.10;;;;;;;;;;5048924;28;20595;-53
2022/07/05 00:27:03;;;;;;;3.03;2.83;;;;;;;;;;5067492;28;20172;-53
2022/07/05 00:29:29;;;;;;;3.17;2.50;;;;;;;;;;5049087;28;20627;-53
2022/07/05 00:31:55;;;;;;;5.47;2.60;;;;;;;;;;5048913;28;20807;-54
2022/07/05 00:34:22;;;;;;;2.77;2.37;;;;;;;;;;5067669;28;20161;-53
2022/07/05 00:36:48;;;;;;;5.70;2.40;;;;;;;;;;5065919;28;20611;-52
2022/07/05 00:39:14;;;;;;;3.37;2.73;;;;;;;;;;5066978;28;20231;-54
2022/07/05 00:41:40;;;;;;;3.50;3.20;;;;;;;;;;5049089;28;20204;-53
2022/07/05 00:44:08;;;;;;;2.43;2.33;;;;;;;;;;5048950;28;20597;-54
2022/07/05 00:46:36;;;;;;;2.30;2.20;;;;;;;;;;5048592;28;20184;-54
2022/07/05 00:49:03;;;;;;;3.50;2.63;;;;;;;;;;5067042;28;20255;-53
2022/07/05 00:51:30;;;;;;;2.83;2.63;;;;;;;;;;5066165;28;20194;-59
2022/07/05 00:53:56;;;;;;;2.97;2.60;;;;;;;;;;5050649;28;20184;-54
2022/07/05 00:56:24;;;;;;;5.50;2.63;;;;;;;;;;5048857;28;20177;-56
2022/07/05 00:58:50;;;;;;;2.60;2.40;;;;;;;;;;5048651;28;20184;-55
2022/07/05 01:01:17;;;;;;;2.50;2.30;;;;;;;;;;5047098;28;20200;-55
2022/07/05 01:03:44;;;;;;;2.77;2.50;;;;;;;;;;5068522;28;20253;-55
2022/07/05 01:06:12;;;;;;;2.93;2.00;;;;;;;;;;5072469;28;20545;-53
2022/07/05 01:08:40;;;;;;;2.40;2.30;;;;;;;;;;5067364;28;20172;-54
2022/07/05 01:11:07;;;;;;;2.93;2.57;;;;;;;;;;5054520;28;20212;-53
2022/07/05 01:13:34;;;;;;;7.23;2.57;;;;;;;;;;5048186;28;20197;-55
2022/07/05 01:16:01;;;;;;;2.70;2.43;;;;;;;;;;5066586;28;20172;-53
2022/07/05 01:18:27;;;;;;;5.03;2.50;;;;;;;;;;5065957;28;20246;-54
2022/07/05 01:20:53;;;;;;;2.40;2.00;;;;;;;;;;5047435;28;20270;-53
2022/07/05 01:23:20;;;;;;;2.33;2.03;;;;;;;;;;5066612;27;20694;-54
2022/07/05 01:25:49;;;;;;;3.87;2.50;;;;;;;;;;5065798;28;20685;-54
2022/07/05 01:28:16;;;;;;;2.40;2.20;;;;;;;;;;5047988;28;20208;-55
2022/07/05 01:30:43;;;;;;;3.63;2.90;;;;;;;;;;5066099;28;20176;-54
2022/07/05 01:33:09;;;;;;;6.00;2.50;;;;;;;;;;5048324;28;20176;-55
2022/07/05 01:35:36;;;;;;;3.97;2.30;;;;;;;;;;5053853;28;20415;-51
2022/07/05 01:38:04;;;;;;;3.57;2.70;;;;;;;;;;5062073;28;20181;-54
2022/07/05 01:40:30;;;;;;;2.30;2.10;;;;;;;;;;5047996;28;20205;-54
2022/07/05 01:42:57;;;;;;;2.90;2.47;;;;;;;;;;5047802;28;20267;-63
2022/07/05 01:45:39;;;;;;;2.33;2.13;;;;;;;;;;5027738;28;20196;-54
2022/07/05 01:48:07;;;;;;;3.70;2.57;;;;;;;;;;5045857;28;20164;-54
2022/07/05 01:50:46;;;;;;;2.73;2.37;;;;;;;;;;5036690;28;20609;-55
2022/07/05 01:53:28;;;;;;;4.13;2.20;;;;;;;;;;5046655;28;20583;-52
2022/07/05 01:55:56;;;;;;;2.30;2.10;;;;;;;;;;5028386;28;20342;-54
2022/07/05 01:58:23;;;;;;;3.03;2.33;;;;;;;;;;5046438;28;20161;-54
2022/07/05 02:00:51;;;;;;;2.37;2.17;;;;;;;;;;5022867;28;20232;-55
2022/07/05 02:03:17;;;;;;;5.10;4.70;;;;;;;;;;5065885;28;20554;-52
2022/07/05 02:05:45;;;;;;;3.83;2.40;;;;;;;;;;5065881;28;20183;-53
2022/07/05 02:08:12;;;;;;;2.40;2.20;;;;;;;;;;5064650;28;20620;-52
2022/07/05 02:10:39;;;;;;;2.53;2.33;;;;;;;;;;5054049;28;20184;-53
2022/07/05 02:13:06;;;;;;;2.53;2.10;;;;;;;;;;5065728;28;20161;-53
2022/07/05 02:15:33;;;;;;;3.03;2.60;;;;;;;;;;5065536;28;20670;-56
2022/07/05 02:18:00;;;;;;;2.83;2.63;;;;;;;;;;5047368;28;20521;-54
2022/07/05 02:20:27;;;;;;;3.53;2.57;;;;;;;;;;5065381;28;20196;-52
2022/07/05 02:22:53;;;;;;;2.53;2.27;;;;;;;;;;5065979;27;20224;-54
2022/07/05 02:25:20;;;;;;;4.47;2.87;;;;;;;;;;5050647;28;20226;-53
2022/07/05 02:27:47;;;;;;;3.00;2.60;;;;;;;;;;5064039;28;20837;-51
2022/07/05 02:30:13;;;;;;;4.60;2.57;;;;;;;;;;5041476;28;20185;-53
2022/07/05 02:32:39;;;;;;;3.23;2.30;;;;;;;;;;5045881;28;20197;-54
2022/07/05 02:35:06;;;;;;;3.27;2.67;;;;;;;;;;5032724;28;20565;-54
2022/07/05 02:37:32;;;;;;;5.47;2.60;;;;;;;;;;5046076;28;20267;-53
2022/07/05 02:39:59;;;;;;;5.10;2.77;;;;;;;;;;5049940;28;20204;-53
2022/07/05 02:42:25;;;;;;;2.43;2.23;;;;;;;;;;5051312;28;20176;-53
2022/07/05 02:44:52;;;;;;;3.37;2.20;;;;;;;;;;5068916;28;20172;-54
2022/07/05 02:47:18;;;;;;;3.40;2.47;;;;;;;;;;5051236;28;20160;-60
2022/07/05 02:49:44;;;;;;;4.37;2.30;;;;;;;;;;5050762;28;20202;-54
2022/07/05 02:52:11;;;;;;;4.93;2.87;;;;;;;;;;5068322;28;20219;-54
2022/07/05 02:54:39;;;;;;;4.33;3.23;;;;;;;;;;5034700;28;20623;-52
2022/07/05 02:57:05;;;;;;;4.77;3.10;;;;;;;;;;5050693;28;20218;-54
2022/07/05 02:59:31;;;;;;;2.80;2.60;;;;;;;;;;5069483;28;20180;-53
2022/07/05 03:01:58;;;;;;;2.60;2.40;;;;;;;;;;5069292;28;20193;-54
2022/07/05 03:04:24;;;;;;;3.50;2.90;;;;;;;;;;5051204;28;20541;-54
2022/07/05 03:06:50;;;;;;;3.07;2.33;;;;;;;;;;5067871;28;20191;-54
2022/07/05 03:09:16;;;;;;;2.70;2.50;;;;;;;;;;5051016;28;20210;-52
2022/07/05 03:11:43;;;;;;;3.00;2.40;;;;;;;;;;5065764;28;20184;-53
2022/07/05 03:14:09;;;;;;;3.87;2.80;;;;;;;;;;5069141;28;20161;-54
2022/07/05 03:16:35;;;;;;;8.03;7.37;;;;;;;;;;5052708;28;20519;-52
2022/07/05 03:19:05;;;;;;;4.90;2.90;;;;;;;;;;5050911;28;20198;-51
2022/07/05 03:21:31;;;;;;;3.70;2.87;;;;;;;;;;5050134;28;20655;-53
2022/07/05 03:23:57;;;;;;;6.73;2.60;;;;;;;;;;5039035;28;20405;-53
2022/07/05 03:26:23;;;;;;;4.90;3.27;;;;;;;;;;5030624;28;20185;-54
2022/07/05 03:28:49;;;;;;;4.47;3.30;;;;;;;;;;5048752;28;20160;-53
2022/07/05 03:31:16;;;;;;;5.73;4.73;;;;;;;;;;5048758;28;20235;-53
2022/07/05 03:33:42;;;;;;;4.20;2.50;;;;;;;;;;5030851;28;20185;-52
2022/07/05 03:36:09;;;;;;;2.83;2.40;;;;;;;;;;5040702;28;20275;-53
2022/07/05 03:38:36;;;;;;;4.97;2.37;;;;;;;;;;5047602;28;20280;-54
2022/07/05 03:41:02;;;;;;;3.60;3.27;;;;;;;;;;5048477;28;20562;-54
2022/07/05 03:43:29;;;;;;;6.63;3.33;;;;;;;;;;5048852;28;20548;-52
2022/07/05 03:45:55;;;;;;;4.37;3.27;;;;;;;;;;5060389;28;20160;-53
2022/07/05 03:48:22;;;;;;;3.83;2.47;;;;;;;;;;5050646;28;20175;-52
2022/07/05 03:50:48;;;;;;;5.20;3.00;;;;;;;;;;5067096;28;20212;-53
2022/07/05 03:53:15;;;;;;;5.53;3.00;;;;;;;;;;5049137;28;20191;-53
2022/07/05 03:55:41;;;;;;;3.90;2.60;;;;;;;;;;5039919;28;20173;-52
2022/07/05 03:58:07;;;;;;;5.20;2.70;;;;;;;;;;5048315;28;20585;-54
2022/07/05 04:00:34;;;;;;;2.97;2.70;;;;;;;;;;5029992;28;20300;-53
2022/07/05 04:03:01;;;;;;;6.63;2.60;;;;;;;;;;5048389;28;20504;-55
2022/07/05 04:05:27;;;;;;;3.27;3.00;;;;;;;;;;5056262;28;20727;-53
2022/07/05 04:07:54;;;;;;;3.93;3.53;;;;;;;;;;5067025;28;20172;-54
2022/07/05 04:10:21;;;;;;;5.67;3.67;;;;;;;;;;5067352;28;20296;-54
2022/07/05 04:12:54;;;;;;;3.03;2.73;;;;;;;;;;5049498;28;20238;-54
2022/07/05 04:15:20;;;;;;;4.38;2.90;;;;;;;;;;5048700;28;20500;-53
2022/07/05 04:17:50;;;;;;;3.17;2.87;;;;;;;;;;5047277;28;20174;-59
2022/07/05 04:20:17;;;;;;;3.27;2.80;;;;;;;;;;5029638;28;20235;-57
2022/07/05 04:22:43;;;;;;;4.27;2.97;;;;;;;;;;5049287;27;20157;-54
2022/07/05 04:25:16;;;;;;;5.77;4.53;;;;;;;;;;5049269;28;20180;-53
2022/07/05 04:27:42;;;;;;;6.30;2.77;;;;;;;;;;5067336;28;20167;-51
2022/07/05 04:30:12;;;;;;;5.30;2.90;;;;;;;;;;5050928;28;20321;-53
2022/07/05 04:32:38;;;;;;;2.93;2.73;;;;;;;;;;5067475;28;20472;-53
2022/07/05 04:35:05;;;;;;;4.27;3.10;;;;;;;;;;5064212;28;20229;-52
2022/07/05 04:37:31;;;;;;;3.17;2.87;;;;;;;;;;5065583;28;20160;-54
2022/07/05 04:39:57;;;;;;;3.60;2.73;;;;;;;;;;5067040;28;20698;-53
2022/07/05 04:42:23;;;;;;;3.30;3.00;;;;;;;;;;5067219;28;20168;-53
2022/07/05 04:44:49;;;;;;;3.57;2.63;;;;;;;;;;5067183;28;20198;-54
2022/07/05 04:47:15;;;;;;;4.97;3.27;;;;;;;;;;5066789;28;20249;-53
2022/07/05 04:49:41;;;;;;;3.10;2.77;;;;;;;;;;5066687;28;20160;-53
2022/07/05 04:52:08;;;;;;;4.47;3.60;;;;;;;;;;5047659;28;20200;-53
2022/07/05 04:54:34;;;;;;;4.13;2.90;;;;;;;;;;5066818;28;20480;-56
2022/07/05 04:57:00;;;;;;;4.80;3.20;;;;;;;;;;5048423;28;20184;-53
2022/07/05 04:59:27;;;;;;;5.83;3.47;;;;;;;;;;5048716;28;20187;-53
2022/07/05 05:02:00;;;;;;;5.10;3.60;;;;;;;;;;5065866;28;20179;-53
2022/07/05 05:04:26;;;;;;;5.93;3.23;;;;;;;;;;5066836;28;20325;-52
2022/07/05 05:06:52;;;;;;;3.83;3.00;;;;;;;;;;5065238;28;20234;-53
2022/07/05 05:09:19;;;;;;;3.87;3.00;;;;;;;;;;5066472;28;20749;-59
2022/07/05 05:11:45;;;;;;;4.20;3.50;;;;;;;;;;5046311;28;20207;-53
2022/07/05 05:14:11;;;;;;;5.43;3.00;;;;;;;;;;5066618;28;20187;-53
2022/07/05 05:16:38;;;;;;;3.80;3.00;;;;;;;;;;5047597;28;20184;-53
2022/07/05 05:19:04;;;;;;;3.63;3.20;;;;;;;;;;5066054;28;20222;-53
2022/07/05 05:21:30;;;;;;;6.33;3.30;;;;;;;;;;5065617;28;20238;-55
2022/07/05 05:24:11;;;;;;;5.90;3.63;;;;;;;;;;5049276;28;20246;-52
2022/07/05 05:26:37;;;;;;;4.33;3.57;;;;;;;;;;5066096;28;20273;-53
2022/07/05 05:29:03;;;;;;;3.23;2.93;;;;;;;;;;5086209;28;20203;-53
2022/07/05 05:31:30;;;;;;;3.33;3.00;;;;;;;;;;5086550;28;20190;-53
2022/07/05 05:33:56;;;;;;;5.10;3.53;;;;;;;;;;5068345;28;20546;-52
2022/07/05 05:36:22;;;;;;;4.90;3.30;;;;;;;;;;5085319;28;20573;-53
2022/07/05 05:38:48;;;;;;;5.20;3.30;;;;;;;;;;5085932;28;20672;-53
2022/07/05 05:41:15;;;;;;;3.50;3.20;;;;;;;;;;5036805;28;20214;-52
2022/07/05 05:43:41;;;;;;;4.30;2.83;;;;;;;;;;5048331;28;20179;-51
2022/07/05 05:46:08;;;;;;;6.23;3.30;;;;;;;;;;5061552;28;20521;-52
2022/07/05 05:48:34;;;;;;;4.30;3.47;;;;;;;;;;5086668;28;20229;-54
2022/07/05 05:51:00;;;;;;;5.10;3.23;;;;;;;;;;5085424;28;20203;-56
2022/07/05 05:53:27;;;;;;;4.53;3.73;;;;;;;;;;5053775;28;20199;-55
2022/07/05 05:55:53;;;;;;;6.13;3.43;;;;;;;;;;5077206;28;20180;-55
2022/07/05 05:58:20;;;;;;;3.67;3.30;;;;;;;;;;5068141;28;20168;-53
2022/07/05 06:00:48;;;;;;;3.23;2.93;;;;;;;;;;5085576;28;20188;-51
2022/07/05 06:03:14;;;;;;;5.57;3.47;;;;;;;;;;5067959;28;20175;-54
2022/07/05 06:05:41;;;;;;;4.77;4.30;;;;;;;;;;5075806;28;20185;-52
2022/07/05 06:08:07;;;;;;;3.90;3.27;;;;;;;;;;5046505;28;20164;-52
2022/07/05 06:10:35;;;;;;;3.87;3.53;;;;;;;;;;5056069;28;20175;-54
2022/07/05 06:13:03;;;;;;;7.10;5.33;;;;;;;;;;5068955;28;20615;-52
2022/07/05 06:15:29;;;;;;;4.60;3.47;;;;;;;;;;5089589;28;20226;-53
2022/07/05 06:17:56;;;;;;;4.70;3.13;;;;;;;;;;5089430;28;20549;-54
2022/07/05 06:20:23;;;;;;;6.50;3.63;;;;;;;;;;5082178;28;20299;-52
2022/07/05 06:22:57;;;;;;;5.17;3.73;;;;;;;;;;5068796;27;20164;-52
2022/07/05 06:25:23;;;;;;;6.37;4.57;;;;;;;;;;5068010;28;20176;-53
2022/07/05 06:28:00;;;;;;;8.27;3.90;;;;;;;;;;5069381;28;20271;-53
2022/07/05 06:30:28;;;;;;;5.73;3.70;;;;;;;;;;5069630;28;20183;-54
2022/07/05 06:32:54;;;;;;;3.97;3.67;;;;;;;;;;5069968;28;20310;-54
2022/07/05 06:35:21;;;;;;;5.03;3.57;;;;;;;;;;5038686;28;20187;-51
2022/07/05 06:37:54;;;;;;;5.17;3.20;;;;;;;;;;5068213;28;20681;-52
2022/07/05 06:40:22;;;;;;;5.50;3.77;;;;;;;;;;5050872;28;20204;-51
2022/07/05 06:42:48;;;;;;;5.83;4.30;;;;;;;;;;5051118;28;20527;-53
2022/07/05 06:45:15;;;;;;;6.47;4.27;;;;;;;;;;5051822;28;20260;-53
2022/07/05 06:47:42;;;;;;;7.43;4.20;;;;;;;;;;5049340;28;20499;-65
2022/07/05 06:50:08;;;;;;;12.63;5.87;;;;;;;;;;5051524;28;20196;-52
2022/07/05 06:52:35;;;;;;;9.43;5.93;;;;;;;;;;5065978;28;20519;-53
2022/07/05 06:55:01;;;;;;;5.87;4.20;;;;;;;;;;5068671;28;20193;-52
2022/07/05 06:57:27;;;;;;;5.53;4.47;;;;;;;;;;5053967;28;20188;-53
2022/07/05 06:59:53;;;;;;;6.77;3.87;;;;;;;;;;5067339;28;20200;-54
2022/07/05 07:02:20;;;;;;;6.20;3.10;;;;;;;;;;5051055;28;20264;-52
2022/07/05 07:04:47;;;;;;;5.77;3.30;;;;;;;;;;5050650;28;20567;-53
2022/07/05 07:09:58;;;;;;;4.67;3.37;;;;;;;;;;5072527;28;20195;-53
2022/07/05 07:12:25;;;;;;;2.90;2.67;;;;;;;;;;5070065;28;20488;-54
2022/07/05 07:14:51;;;;;;;4.70;2.33;;;;;;;;;;5074924;28;20249;-54
2022/07/05 07:17:17;;;;;;;5.23;3.23;;;;;;;;;;5050627;28;20212;-53
2022/07/05 07:19:44;;;;;;;4.03;3.10;;;;;;;;;;5068747;28;20527;-53
2022/07/05 07:22:10;;;;;;;7.20;3.10;;;;;;;;;;5067735;28;20624;-53
2022/07/05 07:24:37;;;;;;;4.77;2.60;;;;;;;;;;5050608;28;20447;-56
2022/07/05 07:27:04;;;;;;;5.60;2.97;;;;;;;;;;5068389;28;20157;-54
2022/07/05 07:29:31;;;;;;;4.80;2.80;;;;;;;;;;5066880;28;20472;-53
2022/07/05 07:31:58;;;;;;;3.20;2.73;;;;;;;;;;5049140;28;20224;-53
2022/07/05 07:34:24;;;;;;;2.83;2.60;;;;;;;;;;5068088;28;20165;-54
2022/07/05 07:36:51;;;;;;;2.93;2.60;;;;;;;;;;5066314;28;20189;-55
2022/07/05 07:39:18;;;;;;;4.33;2.80;;;;;;;;;;5067175;28;20525;-53
2022/07/05 07:41:44;;;;;;;3.43;3.13;;;;;;;;;;5057600;28;20206;-54
2022/07/05 07:44:10;;;;;;;5.87;2.40;;;;;;;;;;5030957;28;20217;-54
2022/07/05 07:46:39;;;;;;;4.10;3.27;;;;;;;;;;5083982;28;20613;-53
2022/07/05 07:49:05;;;;;;;2.20;2.00;;;;;;;;;;5070424;28;20186;-54
2022/07/05 07:51:32;;;;;;;2.57;2.37;;;;;;;;;;5086991;28;20261;-53
2022/07/05 07:53:58;;;;;;;4.73;2.70;;;;;;;;;;5051789;28;21182;-54
2022/07/05 07:56:24;;;;;;;2.30;2.07;;;;;;;;;;5049068;28;20387;-54
2022/07/05 07:58:51;;;;;;;2.90;2.20;;;;;;;;;;5067974;28;20180;-53
2022/07/05 08:01:18;;;;;;;3.60;2.10;;;;;;;;;;5055514;28;20300;-53
2022/07/05 08:03:44;;;;;;;2.77;2.57;;;;;;;;;;5048606;28;20184;-53
2022/07/05 08:06:12;;;;;;;3.53;2.20;;;;;;;;;;5044340;28;20458;-54
2022/07/05 08:08:39;;;;;;;4.50;2.20;;;;;;;;;;5048836;28;20224;-52
2022/07/05 08:11:06;;;;;;;5.97;2.37;;;;;;;;;;5062765;28;20169;-54
2022/07/05 08:13:32;;;;;;;2.30;1.93;;;;;;;;;;5070302;28;20604;-53
2022/07/05 08:15:59;;;;;;;2.47;2.13;;;;;;;;;;5040581;28;20663;-54
2022/07/05 08:23:56;;;;;;;2.40;2.20;;;;;;;;;;5068104;27;20324;-54
2022/07/05 08:26:22;;;;;;;2.73;2.40;;;;;;;;;;5061105;28;20651;-53
2022/07/05 08:28:49;;;;;;;2.53;2.10;;;;;;;;;;5067846;28;20166;-53
2022/07/05 08:31:16;;;;;;;3.93;2.20;;;;;;;;;;5038019;28;20231;-54
2022/07/05 08:33:42;;;;;;;2.40;2.10;;;;;;;;;;5067467;28;20503;-61
2022/07/05 08:36:08;;;;;;;3.30;2.20;;;;;;;;;;5058510;28;20193;-54
2022/07/05 08:38:34;;;;;;;4.33;2.30;;;;;;;;;;5066164;28;20200;-53
2022/07/05 08:41:01;;;;;;;2.90;2.43;;;;;;;;;;5048786;28;20293;-53
2022/07/05 08:43:28;;;;;;;5.23;2.63;;;;;;;;;;5066994;28;20188;-53
2022/07/05 08:45:55;;;;;;;3.40;2.30;;;;;;;;;;5056912;28;20328;-54
2022/07/05 08:48:22;;;;;;;2.80;2.27;;;;;;;;;;5066948;28;20184;-53
2022/07/05 08:50:50;;;;;;;3.03;2.20;;;;;;;;;;5071922;28;20541;-53
2022/07/05 08:53:18;;;;;;;2.63;2.30;;;;;;;;;;5085220;28;20259;-53
2022/07/05 08:55:45;;;;;;;4.13;2.53;;;;;;;;;;5057633;28;20569;-53
2022/07/05 08:58:12;;;;;;;2.73;2.30;;;;;;;;;;5066109;28;20329;-57
2022/07/05 09:00:39;;;;;;;3.40;2.23;;;;;;;;;;5055027;28;20220;-55
2022/07/05 09:03:06;;;;;;;2.77;2.10;;;;;;;;;;5066062;28;20580;-57
2022/07/05 09:05:36;;;;;;;1.90;1.80;;;;;;;;;;5066479;28;20258;-56
2022/07/05 09:08:03;;;;;;;2.60;1.80;;;;;;;;;;5064088;28;20174;-53
2022/07/05 09:10:30;;;;;;;3.27;2.20;;;;;;;;;;5070502;28;20189;-53
2022/07/05 09:12:57;;;;;;;2.43;2.23;;;;;;;;;;5086662;28;20492;-54
2022/07/05 09:15:24;;;;;;;2.73;1.90;;;;;;;;;;5049579;28;20194;-53
2022/07/05 09:17:50;;;;;;;2.13;1.77;;;;;;;;;;5048106;28;20209;-55
2022/07/05 09:20:17;;;;;;;2.00;1.80;;;;;;;;;;5047645;28;20206;-69
2022/07/05 09:22:48;;;;;;;3.07;2.03;;;;;;;;;;5046381;28;20185;-54
2022/07/05 09:25:19;;;;;;;2.33;1.87;;;;;;;;;;5073315;27;20316;-55
2022/07/05 09:27:49;;;;;;;2.07;1.87;;;;;;;;;;5086233;28;20165;-54
2022/07/05 09:30:24;;;;;;;2.60;1.97;;;;;;;;;;5086565;28;20173;-53
2022/07/05 09:33:01;;;;;;;2.53;2.30;;;;;;;;;;5086834;28;20546;-55
2022/07/05 09:35:28;;;;;;;2.40;2.20;;;;;;;;;;5085172;28;20220;-54
2022/07/05 09:37:54;;;;;;;2.80;2.03;;;;;;;;;;5060851;28;20425;-53
2022/07/05 09:40:20;;;;;;;3.77;2.00;;;;;;;;;;5071917;28;20195;-53
2022/07/05 09:42:47;;;;;;;2.00;1.80;;;;;;;;;;5066665;28;20195;-53
2022/07/05 09:45:13;;;;;;;1.70;1.60;;;;;;;;;;5060606;28;20183;-53
2022/07/05 09:47:39;;;;;;;2.03;1.93;;;;;;;;;;5047841;28;20166;-51
2022/07/05 09:50:06;;;;;;;2.97;1.90;;;;;;;;;;5069172;28;20195;-53
2022/07/05 09:52:40;;;;;;;2.43;2.23;;;;;;;;;;5050945;28;20179;-54
2022/07/05 09:55:18;;;;;;;3.17;2.10;;;;;;;;;;5070486;28;20185;-55
2022/07/05 09:57:46;;;;;;;3.17;2.20;;;;;;;;;;5069824;28;20176;-53
2022/07/05 10:00:14;;;;;;;2.13;2.03;;;;;;;;;;5057099;28;20769;-54
2022/07/05 10:02:44;;;;;;;1.90;1.80;;;;;;;;;;5089961;28;20219;-54
2022/07/05 10:05:14;;;;;;;2.07;1.97;;;;;;;;;;5065982;28;20642;-54
2022/07/05 10:07:41;;;;;;;1.80;1.70;;;;;;;;;;5068774;28;20633;-54
2022/07/05 10:10:09;;;;;;;1.93;1.83;;;;;;;;;;5069365;28;20181;-54
2022/07/05 10:12:37;;;;;;;2.03;1.93;;;;;;;;;;5069290;28;20157;-55
2022/07/05 10:15:04;;;;;;;3.00;1.90;;;;;;;;;;5070094;28;20241;-55
2022/07/05 10:17:36;;;;;;;3.42;2.22;;;;;;;;;;5069490;28;20590;-54
2022/07/05 10:20:03;;;;;;;2.40;2.20;;;;;;;;;;5067284;28;20223;-55
2022/07/05 10:22:30;;;;;;;3.00;1.90;;;;;;;;;;5068410;28;20157;-54
2022/07/05 10:24:56;;;;;;;2.60;2.40;;;;;;;;;;5071497;27;20243;-54
2022/07/05 10:27:25;;;;;;;2.03;1.87;;;;;;;;;;5069322;28;20615;-55
2022/07/05 10:29:52;;;;;;;2.20;2.00;;;;;;;;;;5051079;28;20184;-54
2022/07/05 10:32:19;;;;;;;2.07;1.97;;;;;;;;;;5069169;28;20304;-55
2022/07/05 10:34:46;;;;;;;2.20;2.00;;;;;;;;;;5051403;28;20172;-54
2022/07/05 10:37:13;;;;;;;1.90;1.80;;;;;;;;;;5067847;28;20160;-55
2022/07/05 10:39:39;;;;;;;2.17;2.07;;;;;;;;;;5050628;28;20161;-55
2022/07/05 10:42:07;;;;;;;1.90;1.80;;;;;;;;;;5050896;28;20161;-54
2022/07/05 10:44:34;;;;;;;2.63;2.10;;;;;;;;;;5069350;28;20168;-55
2022/07/05 10:47:09;;;;;;;2.20;2.00;;;;;;;;;;5069284;28;20263;-54
2022/07/05 10:49:36;;;;;;;2.27;1.93;;;;;;;;;;5069060;28;20175;-54
2022/07/05 10:52:03;;;;;;;2.00;1.87;;;;;;;;;;5066138;28;20214;-52
2022/07/05 10:54:29;;;;;;;2.10;1.80;;;;;;;;;;5031168;28;20664;-55
2022/07/05 10:57:14;;;;;;;2.57;2.37;;;;;;;;;;5071183;28;20164;-54
2022/07/05 10:59:59;;;;;;;2.47;2.27;;;;;;;;;;5068102;28;20717;-54
2022/07/05 11:02:25;;;;;;;3.67;2.53;;;;;;;;;;5067166;28;20167;-55
2022/07/05 11:04:56;;;;;;;2.50;2.30;;;;;;;;;;5068805;28;20169;-55
2022/07/05 11:07:41;;;;;;;4.10;2.37;;;;;;;;;;5067820;28;20156;-55
2022/07/05 11:10:07;;;;;;;2.53;2.33;;;;;;;;;;5070278;28;20207;-55
2022/07/05 11:12:40;;;;;;;5.07;2.17;;;;;;;;;;5088793;28;20164;-55
2022/07/05 11:15:11;;;;;;;5.53;2.43;;;;;;;;;;5065118;28;20389;-54
2022/07/05 11:17:37;;;;;;;3.23;2.40;;;;;;;;;;5068548;28;20457;-54
2022/07/05 11:20:27;;;;;;;5.27;2.17;;;;;;;;;;5068321;28;20314;-52
2022/07/05 11:23:02;;;;;;;2.77;2.50;;;;;;;;;;5067300;28;20627;-53
2022/07/05 11:25:36;;;;;;;3.23;2.47;;;;;;;;;;5077641;27;20729;-55
2022/07/05 11:28:17;;;;;;;3.73;2.10;;;;;;;;;;5088908;28;20209;-52
2022/07/05 11:30:48;;;;;;;1.97;1.80;;;;;;;;;;5088704;28;20626;-53
2022/07/05 11:33:31;;;;;;;5.53;2.00;;;;;;;;;;5088548;28;20175;-53
2022/07/05 11:35:57;;;;;;;2.17;1.97;;;;;;;;;;5058433;28;20195;-54
2022/07/05 11:38:23;;;;;;;2.73;2.47;;;;;;;;;;5066544;28;20284;-55
2022/07/05 11:40:50;;;;;;;2.27;1.97;;;;;;;;;;5067840;28;20207;-55
2022/07/05 11:43:26;;;;;;;2.87;2.67;;;;;;;;;;5050433;28;20649;-55
2022/07/05 11:46:02;;;;;;;2.97;1.80;;;;;;;;;;5057783;28;20184;-54
2022/07/05 11:48:30;;;;;;;2.50;2.00;;;;;;;;;;5068060;28;20519;-58
2022/07/05 11:50:56;;;;;;;2.13;1.93;;;;;;;;;;5058663;28;20673;-54
2022/07/05 11:53:30;;;;;;;2.10;2.00;;;;;;;;;;5066888;28;20207;-54
2022/07/05 11:55:59;;;;;;;2.03;1.83;;;;;;;;;;5068455;28;20314;-53
2022/07/05 11:58:35;;;;;;;2.10;1.90;;;;;;;;;;5050271;28;20571;-55
2022/07/05 12:01:01;;;;;;;2.33;2.17;;;;;;;;;;5067561;28;20227;-55
2022/07/05 12:03:28;;;;;;;3.70;2.10;;;;;;;;;;5067398;28;20231;-55
2022/07/05 12:05:55;;;;;;;3.33;2.13;;;;;;;;;;5067817;28;20239;-59
2022/07/05 12:08:24;;;;;;;3.20;2.00;;;;;;;;;;5066359;28;20180;-54
2022/07/05 12:14:02;;;;;;;1.97;1.87;;;;;;;;;;5067109;28;20210;-54
2022/07/05 12:16:29;;;;;;;2.00;1.80;;;;;;;;;;5046792;28;20279;-54
2022/07/05 12:19:05;;;;;;;2.15;1.90;;;;;;;;;;5048727;28;20410;-56
2022/07/05 12:21:31;;;;;;;2.50;2.30;;;;;;;;;;5066738;28;20184;-54
2022/07/05 12:23:57;;;;;;;4.13;2.10;;;;;;;;;;5045393;28;20742;-55
2022/07/05 12:26:23;;;;;;;2.07;1.90;;;;;;;;;;5046848;28;20204;-54
2022/07/05 12:28:50;;;;;;;2.17;2.00;;;;;;;;;;5047240;28;20629;-55
2022/07/05 12:31:23;;;;;;;3.10;2.90;;;;;;;;;;5029128;28;20639;-53
2022/07/05 12:33:50;;;;;;;2.47;2.20;;;;;;;;;;5047384;28;20217;-54
2022/07/05 12:36:17;;;;;;;4.13;2.73;;;;;;;;;;5029098;28;20665;-53
2022/07/05 12:38:44;;;;;;;2.40;2.20;;;;;;;;;;5046876;28;20596;-57
2022/07/05 12:41:10;;;;;;;2.40;2.10;;;;;;;;;;5047801;28;20198;-55
2022/07/05 12:43:50;;;;;;;2.80;2.47;;;;;;;;;;5028894;28;20257;-56
2022/07/05 12:46:16;;;;;;;2.67;2.20;;;;;;;;;;5047140;28;20243;-53
2022/07/05 12:48:43;;;;;;;3.67;2.30;;;;;;;;;;5047417;28;20180;-57
2022/07/05 12:51:10;;;;;;;2.60;1.87;;;;;;;;;;5046960;28;20305;-54
2022/07/05 12:59:17;;;;;;;3.63;2.40;;;;;;;;;;5046982;28;20165;-56
2022/07/05 13:01:44;;;;;;;3.13;2.23;;;;;;;;;;5046403;28;20195;-56
2022/07/05 13:04:11;;;;;;;2.87;2.40;;;;;;;;;;5046926;28;20608;-56
2022/07/05 13:06:54;;;;;;;2.60;2.40;;;;;;;;;;5028566;28;20186;-53
2022/07/05 13:09:31;;;;;;;2.30;2.10;;;;;;;;;;5047258;28;20514;-55
2022/07/05 13:12:14;;;;;;;2.80;2.53;;;;;;;;;;5047204;28;20530;-55
2022/07/05 13:14:41;;;;;;;2.90;2.37;;;;;;;;;;5046328;28;20763;-56
2022/07/05 13:17:08;;;;;;;2.77;2.27;;;;;;;;;;5046791;28;20160;-56
2022/07/05 13:19:35;;;;;;;2.77;2.57;;;;;;;;;;5046563;28;20171;-56
2022/07/05 13:22:01;;;;;;;2.47;2.27;;;;;;;;;;5045692;28;20290;-55
2022/07/05 13:24:28;;;;;;;2.30;2.10;;;;;;;;;;5036271;28;20659;-56
2022/07/05 13:26:55;;;;;;;4.33;2.77;;;;;;;;;;5066187;28;20186;-54
2022/07/05 13:29:21;;;;;;;2.40;2.13;;;;;;;;;;5048454;28;20914;-54
2022/07/05 13:31:47;;;;;;;2.53;2.20;;;;;;;;;;5047834;28;20208;-53
2022/07/05 13:34:14;;;;;;;3.23;2.23;;;;;;;;;;5066481;28;20173;-54
2022/07/05 13:36:40;;;;;;;2.53;2.30;;;;;;;;;;5047289;28;20245;-53
2022/07/05 13:39:06;;;;;;;3.03;2.60;;;;;;;;;;5065642;28;20169;-57
2022/07/05 13:41:33;;;;;;;3.60;2.57;;;;;;;;;;5047897;28;20214;-54
2022/07/05 13:44:00;;;;;;;3.90;2.47;;;;;;;;;;5066131;28;20203;-53
2022/07/05 13:46:26;;;;;;;5.23;2.27;;;;;;;;;;5065721;28;20185;-54
2022/07/05 13:48:54;;;;;;;3.37;2.20;;;;;;;;;;5032045;28;20659;-55
2022/07/05 13:51:20;;;;;;;4.30;2.60;;;;;;;;;;5065621;28;20680;-53
2022/07/05 13:53:47;;;;;;;3.40;2.23;;;;;;;;;;5047312;28;20171;-53
2022/07/05 13:56:13;;;;;;;6.37;2.60;;;;;;;;;;5066727;28;20653;-53
2022/07/05 13:58:39;;;;;;;2.60;2.33;;;;;;;;;;5066292;28;20177;-51
2022/07/05 14:01:06;;;;;;;4.13;2.13;;;;;;;;;;5066339;28;20543;-54
2022/07/05 14:03:32;;;;;;;3.27;2.50;;;;;;;;;;5048242;28;20168;-53
2022/07/05 14:05:58;;;;;;;2.90;2.70;;;;;;;;;;5047852;28;20192;-53
2022/07/05 14:08:24;;;;;;;3.33;2.90;;;;;;;;;;5047056;28;20170;-53
2022/07/05 14:10:51;;;;;;;4.40;2.60;;;;;;;;;;5065726;28;20188;-54
2022/07/05 14:13:21;;;;;;;5.13;2.53;;;;;;;;;;5047707;28;20153;-53
2022/07/05 14:15:47;;;;;;;2.47;2.23;;;;;;;;;;5065791;28;20533;-54
2022/07/05 14:18:17;;;;;;;2.63;2.43;;;;;;;;;;5066187;28;20173;-53
2022/07/05 14:20:44;;;;;;;3.10;2.60;;;;;;;;;;5065946;28;20285;-55
2022/07/05 14:23:11;;;;;;;4.50;3.63;;;;;;;;;;5046388;28;20176;-53
2022/07/05 14:25:37;;;;;;;3.37;2.40;;;;;;;;;;5067653;27;20248;-54
2022/07/05 14:28:07;;;;;;;3.67;2.43;;;;;;;;;;5065645;28;20619;-52
2022/07/05 14:30:34;;;;;;;2.67;2.40;;;;;;;;;;5052712;28;20282;-54
2022/07/05 14:33:01;;;;;;;2.47;2.27;;;;;;;;;;5064323;28;20205;-52
2022/07/05 14:35:27;;;;;;;3.53;2.77;;;;;;;;;;5063849;28;20181;-55
2022/07/05 14:37:53;;;;;;;2.87;2.37;;;;;;;;;;5068258;28;20187;-52
2022/07/05 14:40:20;;;;;;;3.13;2.83;;;;;;;;;;5054442;28;20291;-53
2022/07/05 14:42:46;;;;;;;2.73;2.50;;;;;;;;;;5069746;28;20212;-55
2022/07/05 14:45:12;;;;;;;2.97;2.67;;;;;;;;;;5065625;28;20182;-54
2022/07/05 14:47:38;;;;;;;3.00;2.37;;;;;;;;;;5069608;28;20234;-53
2022/07/05 14:50:05;;;;;;;2.90;2.50;;;;;;;;;;5051386;28;20293;-53
2022/07/05 14:52:31;;;;;;;2.20;2.00;;;;;;;;;;5068346;28;20192;-54
2022/07/05 14:54:57;;;;;;;3.27;2.27;;;;;;;;;;5069283;28;20249;-54
2022/07/05 14:57:24;;;;;;;2.87;2.50;;;;;;;;;;5069116;28;20180;-53
2022/07/05 14:59:53;;;;;;;4.53;2.40;;;;;;;;;;5069562;28;20270;-54
2022/07/05 15:02:19;;;;;;;3.00;2.57;;;;;;;;;;5051107;28;20186;-52
2022/07/05 15:04:45;;;;;;;3.10;2.70;;;;;;;;;;5069465;28;20638;-55